Terminal Aerodrome Forecast
Issued by NWS

Current Version | Previous Version | Graphics & Text | Print | Product List | Glossary On
Versions: 1 2 3 4 5 6 7 8 9 10 11 12 13 14 15 16 17 18 19
000
FTUS41 KPBZ 090500
TAFHLG
TAF
KHLG 090536Z 0906/1006 24010KT P6SM SCT050
     FM090900 22005KT P6SM SCT008 BKN015
     FM091500 25010KT P6SM BKN035=

USA.gov is the U.S. government's official web portal to all federal, state and local government web resources and services.